sensor_id;sensor_type;location;lat;lon;timestamp;P1;durP1;ratioP1;P2;durP2;ratioP2
71806;SDS011;59655;42.590;23.364;2023-11-19T00:01:00;2.72;;;1.60;;
71806;SDS011;59655;42.590;23.364;2023-11-19T00:03:26;4.13;;;1.80;;
71806;SDS011;59655;42.590;23.364;2023-11-19T00:05:51;3.08;;;1.90;;
71806;SDS011;59655;42.590;23.364;2023-11-19T00:08:17;2.90;;;1.77;;
71806;SDS011;59655;42.590;23.364;2023-11-19T00:10:42;2.50;;;1.70;;
71806;SDS011;59655;42.590;23.364;2023-11-19T00:13:07;4.47;;;2.03;;
71806;SDS011;59655;42.590;23.364;2023-11-19T00:15:33;3.03;;;1.70;;
71806;SDS011;59655;42.590;23.364;2023-11-19T00:17:58;3.22;;;1.65;;
71806;SDS011;59655;42.590;23.364;2023-11-19T00:20:24;3.05;;;1.48;;
71806;SDS011;59655;42.590;23.364;2023-11-19T00:22:49;3.42;;;1.90;;
71806;SDS011;59655;42.590;23.364;2023-11-19T00:25:18;3.55;;;1.83;;
71806;SDS011;59655;42.590;23.364;2023-11-19T00:27:44;2.75;;;1.63;;
71806;SDS011;59655;42.590;23.364;2023-11-19T00:30:10;3.08;;;1.63;;
71806;SDS011;59655;42.590;23.364;2023-11-19T00:32:35;3.15;;;1.75;;
71806;SDS011;59655;42.590;23.364;2023-11-19T00:35:03;2.97;;;1.77;;
71806;SDS011;59655;42.590;23.364;2023-11-19T00:37:29;3.08;;;1.70;;
71806;SDS011;59655;42.590;23.364;2023-11-19T00:39:55;3.58;;;2.17;;
71806;SDS011;59655;42.590;23.364;2023-11-19T00:42:21;2.92;;;1.85;;
71806;SDS011;59655;42.590;23.364;2023-11-19T00:44:47;3.08;;;2.00;;
71806;SDS011;59655;42.590;23.364;2023-11-19T00:47:12;3.15;;;1.80;;
71806;SDS011;59655;42.590;23.364;2023-11-19T00:49:38;2.88;;;1.70;;
71806;SDS011;59655;42.590;23.364;2023-11-19T00:52:03;3.97;;;2.08;;
71806;SDS011;59655;42.590;23.364;2023-11-19T00:54:28;4.22;;;1.85;;
71806;SDS011;59655;42.590;23.364;2023-11-19T00:56:54;2.80;;;1.65;;
71806;SDS011;59655;42.590;23.364;2023-11-19T00:59:20;3.20;;;1.60;;
71806;SDS011;59655;42.590;23.364;2023-11-19T01:01:46;2.60;;;1.58;;
71806;SDS011;59655;42.590;23.364;2023-11-19T01:04:16;3.17;;;1.70;;
71806;SDS011;59655;42.590;23.364;2023-11-19T01:06:41;2.80;;;1.70;;
71806;SDS011;59655;42.590;23.364;2023-11-19T01:09:07;3.85;;;1.85;;
71806;SDS011;59655;42.590;23.364;2023-11-19T01:11:33;4.13;;;1.90;;
71806;SDS011;59655;42.590;23.364;2023-11-19T01:13:59;3.38;;;2.20;;
71806;SDS011;59655;42.590;23.364;2023-11-19T01:16:25;3.20;;;1.90;;
71806;SDS011;59655;42.590;23.364;2023-11-19T01:18:51;3.88;;;1.85;;
71806;SDS011;59655;42.590;23.364;2023-11-19T01:21:16;3.78;;;1.70;;
71806;SDS011;59655;42.590;23.364;2023-11-19T01:23:42;3.53;;;2.05;;
71806;SDS011;59655;42.590;23.364;2023-11-19T01:28:37;4.43;;;2.10;;
71806;SDS011;59655;42.590;23.364;2023-11-19T01:31:04;2.47;;;1.60;;
71806;SDS011;59655;42.590;23.364;2023-11-19T01:33:30;5.60;;;1.90;;
71806;SDS011;59655;42.590;23.364;2023-11-19T01:35:55;2.78;;;1.77;;
71806;SDS011;59655;42.590;23.364;2023-11-19T01:38:23;3.33;;;2.00;;
71806;SDS011;59655;42.590;23.364;2023-11-19T01:40:49;2.42;;;1.70;;
71806;SDS011;59655;42.590;23.364;2023-11-19T01:43:30;3.28;;;1.67;;
71806;SDS011;59655;42.590;23.364;2023-11-19T01:45:57;2.35;;;1.50;;
71806;SDS011;59655;42.590;23.364;2023-11-19T01:48:22;2.70;;;1.67;;
71806;SDS011;59655;42.590;23.364;2023-11-19T01:50:47;2.83;;;1.58;;
71806;SDS011;59655;42.590;23.364;2023-11-19T01:53:13;2.95;;;1.70;;
71806;SDS011;59655;42.590;23.364;2023-11-19T01:55:38;3.00;;;1.98;;
71806;SDS011;59655;42.590;23.364;2023-11-19T01:58:04;3.63;;;1.73;;
71806;SDS011;59655;42.590;23.364;2023-11-19T02:00:29;4.00;;;1.50;;
71806;SDS011;59655;42.590;23.364;2023-11-19T02:02:55;3.45;;;1.73;;
71806;SDS011;59655;42.590;23.364;2023-11-19T02:05:21;2.80;;;1.73;;
71806;SDS011;59655;42.590;23.364;2023-11-19T02:07:48;3.58;;;1.83;;
71806;SDS011;59655;42.590;23.364;2023-11-19T02:10:15;4.57;;;2.08;;
71806;SDS011;59655;42.590;23.364;2023-11-19T02:12:42;5.72;;;2.08;;
71806;SDS011;59655;42.590;23.364;2023-11-19T02:15:10;3.85;;;1.77;;
71806;SDS011;59655;42.590;23.364;2023-11-19T02:17:36;3.05;;;1.73;;
71806;SDS011;59655;42.590;23.364;2023-11-19T02:20:05;3.33;;;1.95;;
71806;SDS011;59655;42.590;23.364;2023-11-19T02:22:36;4.22;;;1.67;;
71806;SDS011;59655;42.590;23.364;2023-11-19T02:25:04;2.72;;;1.35;;
71806;SDS011;59655;42.590;23.364;2023-11-19T02:30:00;2.50;;;1.50;;
71806;SDS011;59655;42.590;23.364;2023-11-19T02:32:29;3.78;;;1.50;;
71806;SDS011;59655;42.590;23.364;2023-11-19T02:34:55;3.00;;;1.50;;
71806;SDS011;59655;42.590;23.364;2023-11-19T02:37:21;2.85;;;1.50;;
71806;SDS011;59655;42.590;23.364;2023-11-19T02:39:46;2.83;;;1.77;;
71806;SDS011;59655;42.590;23.364;2023-11-19T02:42:12;2.78;;;1.48;;
71806;SDS011;59655;42.590;23.364;2023-11-19T02:44:38;4.38;;;1.60;;
71806;SDS011;59655;42.590;23.364;2023-11-19T02:47:05;2.70;;;1.70;;
71806;SDS011;59655;42.590;23.364;2023-11-19T02:49:33;2.65;;;1.23;;
71806;SDS011;59655;42.590;23.364;2023-11-19T02:51:58;2.85;;;1.38;;
71806;SDS011;59655;42.590;23.364;2023-11-19T02:54:24;2.15;;;1.20;;
71806;SDS011;59655;42.590;23.364;2023-11-19T02:56:52;3.80;;;1.73;;
71806;SDS011;59655;42.590;23.364;2023-11-19T02:59:24;3.20;;;1.50;;
71806;SDS011;59655;42.590;23.364;2023-11-19T03:01:53;2.53;;;1.40;;
71806;SDS011;59655;42.590;23.364;2023-11-19T03:04:19;2.40;;;1.20;;
71806;SDS011;59655;42.590;23.364;2023-11-19T03:06:48;2.53;;;1.58;;
71806;SDS011;59655;42.590;23.364;2023-11-19T03:09:14;2.78;;;1.60;;
71806;SDS011;59655;42.590;23.364;2023-11-19T03:11:39;2.13;;;1.40;;
71806;SDS011;59655;42.590;23.364;2023-11-19T03:14:04;2.55;;;1.23;;
71806;SDS011;59655;42.590;23.364;2023-11-19T03:16:30;2.80;;;1.15;;
71806;SDS011;59655;42.590;23.364;2023-11-19T03:18:55;2.65;;;1.33;;
71806;SDS011;59655;42.590;23.364;2023-11-19T03:21:30;2.53;;;1.30;;
71806;SDS011;59655;42.590;23.364;2023-11-19T03:23:56;2.95;;;1.30;;
71806;SDS011;59655;42.590;23.364;2023-11-19T03:26:25;2.70;;;1.40;;
71806;SDS011;59655;42.590;23.364;2023-11-19T03:28:53;1.88;;;1.27;;
71806;SDS011;59655;42.590;23.364;2023-11-19T03:31:19;3.80;;;1.50;;
71806;SDS011;59655;42.590;23.364;2023-11-19T03:33:45;2.42;;;1.13;;
71806;SDS011;59655;42.590;23.364;2023-11-19T03:36:11;3.10;;;1.40;;
71806;SDS011;59655;42.590;23.364;2023-11-19T03:38:37;4.25;;;1.50;;
71806;SDS011;59655;42.590;23.364;2023-11-19T03:41:10;2.88;;;1.55;;
71806;SDS011;59655;42.590;23.364;2023-11-19T03:43:39;3.38;;;1.55;;
71806;SDS011;59655;42.590;23.364;2023-11-19T03:46:14;3.20;;;1.48;;
71806;SDS011;59655;42.590;23.364;2023-11-19T03:48:43;2.53;;;1.40;;
71806;SDS011;59655;42.590;23.364;2023-11-19T03:51:09;3.17;;;1.58;;
71806;SDS011;59655;42.590;23.364;2023-11-19T03:53:35;2.65;;;1.50;;
71806;SDS011;59655;42.590;23.364;2023-11-19T03:56:00;2.97;;;1.40;;
71806;SDS011;59655;42.590;23.364;2023-11-19T03:58:26;2.90;;;1.83;;
71806;SDS011;59655;42.590;23.364;2023-11-19T04:00:51;3.58;;;1.92;;
71806;SDS011;59655;42.590;23.364;2023-11-19T04:03:17;2.90;;;1.52;;
71806;SDS011;59655;42.590;23.364;2023-11-19T04:05:44;3.67;;;1.60;;
71806;SDS011;59655;42.590;23.364;2023-11-19T04:08:10;3.67;;;1.88;;
71806;SDS011;59655;42.590;23.364;2023-11-19T04:10:35;4.15;;;1.73;;
71806;SDS011;59655;42.590;23.364;2023-11-19T04:13:00;3.10;;;1.50;;
71806;SDS011;59655;42.590;23.364;2023-11-19T04:15:26;3.42;;;1.67;;
71806;SDS011;59655;42.590;23.364;2023-11-19T04:17:51;4.03;;;1.83;;
71806;SDS011;59655;42.590;23.364;2023-11-19T04:20:17;3.35;;;1.50;;
71806;SDS011;59655;42.590;23.364;2023-11-19T04:22:42;3.47;;;1.83;;
71806;SDS011;59655;42.590;23.364;2023-11-19T04:25:08;3.78;;;2.22;;
71806;SDS011;59655;42.590;23.364;2023-11-19T04:27:34;3.17;;;1.63;;
71806;SDS011;59655;42.590;23.364;2023-11-19T04:29:59;3.80;;;1.60;;
71806;SDS011;59655;42.590;23.364;2023-11-19T04:32:26;3.00;;;1.58;;
71806;SDS011;59655;42.590;23.364;2023-11-19T04:34:52;4.50;;;1.75;;
71806;SDS011;59655;42.590;23.364;2023-11-19T04:37:17;2.78;;;1.58;;
71806;SDS011;59655;42.590;23.364;2023-11-19T04:39:45;3.58;;;1.75;;
71806;SDS011;59655;42.590;23.364;2023-11-19T04:42:11;3.42;;;1.50;;
71806;SDS011;59655;42.590;23.364;2023-11-19T04:44:37;4.68;;;2.10;;
71806;SDS011;59655;42.590;23.364;2023-11-19T04:47:03;3.75;;;1.80;;
71806;SDS011;59655;42.590;23.364;2023-11-19T04:49:28;2.97;;;1.67;;
71806;SDS011;59655;42.590;23.364;2023-11-19T04:51:55;3.53;;;1.73;;
71806;SDS011;59655;42.590;23.364;2023-11-19T04:54:21;3.83;;;2.08;;
71806;SDS011;59655;42.590;23.364;2023-11-19T04:56:46;2.97;;;1.55;;
71806;SDS011;59655;42.590;23.364;2023-11-19T04:59:14;2.72;;;1.60;;
71806;SDS011;59655;42.590;23.364;2023-11-19T05:01:40;3.85;;;1.50;;
71806;SDS011;59655;42.590;23.364;2023-11-19T05:04:06;3.78;;;1.92;;
71806;SDS011;59655;42.590;23.364;2023-11-19T05:06:32;2.50;;;1.60;;
71806;SDS011;59655;42.590;23.364;2023-11-19T05:08:58;3.45;;;1.77;;
71806;SDS011;59655;42.590;23.364;2023-11-19T05:11:34;2.70;;;1.30;;
71806;SDS011;59655;42.590;23.364;2023-11-19T05:14:00;3.33;;;1.60;;
71806;SDS011;59655;42.590;23.364;2023-11-19T05:16:28;3.30;;;1.67;;
71806;SDS011;59655;42.590;23.364;2023-11-19T05:18:54;2.90;;;1.60;;
71806;SDS011;59655;42.590;23.364;2023-11-19T05:21:19;3.08;;;1.50;;
71806;SDS011;59655;42.590;23.364;2023-11-19T05:23:45;2.70;;;1.60;;
71806;SDS011;59655;42.590;23.364;2023-11-19T05:26:20;3.22;;;1.95;;
71806;SDS011;59655;42.590;23.364;2023-11-19T05:28:47;4.47;;;2.25;;
71806;SDS011;59655;42.590;23.364;2023-11-19T05:31:13;3.25;;;1.80;;
71806;SDS011;59655;42.590;23.364;2023-11-19T05:33:38;3.08;;;1.60;;
71806;SDS011;59655;42.590;23.364;2023-11-19T05:36:04;3.55;;;1.80;;
71806;SDS011;59655;42.590;23.364;2023-11-19T05:38:30;3.63;;;1.88;;
71806;SDS011;59655;42.590;23.364;2023-11-19T05:40:56;3.40;;;1.80;;
71806;SDS011;59655;42.590;23.364;2023-11-19T05:43:22;2.65;;;1.70;;
71806;SDS011;59655;42.590;23.364;2023-11-19T05:45:47;3.40;;;1.63;;
71806;SDS011;59655;42.590;23.364;2023-11-19T05:48:13;2.88;;;1.63;;
71806;SDS011;59655;42.590;23.364;2023-11-19T05:50:38;2.70;;;1.55;;
71806;SDS011;59655;42.590;23.364;2023-11-19T05:53:04;4.20;;;1.88;;
71806;SDS011;59655;42.590;23.364;2023-11-19T05:55:35;3.55;;;1.70;;
71806;SDS011;59655;42.590;23.364;2023-11-19T05:58:02;4.43;;;2.10;;
71806;SDS011;59655;42.590;23.364;2023-11-19T06:00:29;2.88;;;1.88;;
71806;SDS011;59655;42.590;23.364;2023-11-19T06:02:55;6.38;;;1.77;;
71806;SDS011;59655;42.590;23.364;2023-11-19T06:05:21;4.03;;;1.83;;
71806;SDS011;59655;42.590;23.364;2023-11-19T06:07:46;3.00;;;1.50;;
71806;SDS011;59655;42.590;23.364;2023-11-19T06:10:11;3.47;;;1.75;;
71806;SDS011;59655;42.590;23.364;2023-11-19T06:12:39;3.47;;;1.92;;
71806;SDS011;59655;42.590;23.364;2023-11-19T06:15:06;3.90;;;1.88;;
71806;SDS011;59655;42.590;23.364;2023-11-19T06:17:33;3.53;;;1.65;;
71806;SDS011;59655;42.590;23.364;2023-11-19T06:19:59;3.15;;;1.70;;
71806;SDS011;59655;42.590;23.364;2023-11-19T06:22:24;6.75;;;2.13;;
71806;SDS011;59655;42.590;23.364;2023-11-19T06:24:49;3.75;;;2.10;;
71806;SDS011;59655;42.590;23.364;2023-11-19T06:27:15;3.97;;;2.08;;
71806;SDS011;59655;42.590;23.364;2023-11-19T06:29:40;3.92;;;1.98;;
71806;SDS011;59655;42.590;23.364;2023-11-19T06:32:06;3.85;;;1.98;;
71806;SDS011;59655;42.590;23.364;2023-11-19T06:34:33;3.50;;;1.95;;
71806;SDS011;59655;42.590;23.364;2023-11-19T06:36:58;3.65;;;1.60;;
71806;SDS011;59655;42.590;23.364;2023-11-19T06:39:24;4.40;;;1.75;;
71806;SDS011;59655;42.590;23.364;2023-11-19T06:41:50;4.07;;;1.95;;
71806;SDS011;59655;42.590;23.364;2023-11-19T06:44:15;3.83;;;2.05;;
71806;SDS011;59655;42.590;23.364;2023-11-19T06:46:41;3.35;;;1.67;;
71806;SDS011;59655;42.590;23.364;2023-11-19T06:49:06;11.23;;;5.78;;
71806;SDS011;59655;42.590;23.364;2023-11-19T06:51:33;3.65;;;2.10;;
71806;SDS011;59655;42.590;23.364;2023-11-19T06:53:59;3.97;;;1.85;;
71806;SDS011;59655;42.590;23.364;2023-11-19T06:56:24;5.72;;;1.88;;
71806;SDS011;59655;42.590;23.364;2023-11-19T06:58:50;3.97;;;1.90;;
71806;SDS011;59655;42.590;23.364;2023-11-19T07:01:17;3.28;;;1.50;;
71806;SDS011;59655;42.590;23.364;2023-11-19T07:03:44;3.28;;;1.75;;
71806;SDS011;59655;42.590;23.364;2023-11-19T07:06:12;3.30;;;1.67;;
71806;SDS011;59655;42.590;23.364;2023-11-19T07:08:38;3.25;;;1.58;;
71806;SDS011;59655;42.590;23.364;2023-11-19T07:11:04;3.63;;;1.88;;
71806;SDS011;59655;42.590;23.364;2023-11-19T07:13:29;4.03;;;2.13;;
71806;SDS011;59655;42.590;23.364;2023-11-19T07:15:58;4.70;;;2.20;;
71806;SDS011;59655;42.590;23.364;2023-11-19T07:18:23;3.35;;;1.70;;
71806;SDS011;59655;42.590;23.364;2023-11-19T07:20:49;4.88;;;2.35;;
71806;SDS011;59655;42.590;23.364;2023-11-19T07:23:14;4.10;;;2.03;;
71806;SDS011;59655;42.590;23.364;2023-11-19T07:25:43;4.00;;;2.10;;
71806;SDS011;59655;42.590;23.364;2023-11-19T07:28:12;4.43;;;1.98;;
71806;SDS011;59655;42.590;23.364;2023-11-19T07:30:37;5.55;;;1.90;;
71806;SDS011;59655;42.590;23.364;2023-11-19T07:33:03;4.10;;;1.70;;
71806;SDS011;59655;42.590;23.364;2023-11-19T07:35:29;4.25;;;2.40;;
71806;SDS011;59655;42.590;23.364;2023-11-19T07:37:56;5.07;;;1.88;;
71806;SDS011;59655;42.590;23.364;2023-11-19T07:40:22;3.65;;;1.85;;
71806;SDS011;59655;42.590;23.364;2023-11-19T07:42:48;5.22;;;2.30;;
71806;SDS011;59655;42.590;23.364;2023-11-19T07:45:14;3.55;;;1.67;;
71806;SDS011;59655;42.590;23.364;2023-11-19T07:47:39;4.25;;;2.20;;
71806;SDS011;59655;42.590;23.364;2023-11-19T07:50:04;4.03;;;1.85;;
71806;SDS011;59655;42.590;23.364;2023-11-19T07:52:30;3.75;;;1.90;;
71806;SDS011;59655;42.590;23.364;2023-11-19T07:54:55;3.65;;;1.85;;
71806;SDS011;59655;42.590;23.364;2023-11-19T07:57:21;4.70;;;2.10;;
71806;SDS011;59655;42.590;23.364;2023-11-19T07:59:48;3.38;;;2.35;;
71806;SDS011;59655;42.590;23.364;2023-11-19T08:02:14;3.88;;;2.15;;
71806;SDS011;59655;42.590;23.364;2023-11-19T08:04:39;4.32;;;2.03;;
71806;SDS011;59655;42.590;23.364;2023-11-19T08:07:09;103.93;;;31.73;;
71806;SDS011;59655;42.590;23.364;2023-11-19T08:09:35;8.43;;;3.63;;
71806;SDS011;59655;42.590;23.364;2023-11-19T08:12:00;4.72;;;2.45;;
71806;SDS011;59655;42.590;23.364;2023-11-19T08:14:26;6.28;;;2.30;;
71806;SDS011;59655;42.590;23.364;2023-11-19T08:16:51;4.30;;;2.05;;
71806;SDS011;59655;42.590;23.364;2023-11-19T08:19:16;3.75;;;2.05;;
71806;SDS011;59655;42.590;23.364;2023-11-19T08:21:42;3.97;;;2.00;;
71806;SDS011;59655;42.590;23.364;2023-11-19T08:24:07;4.63;;;2.40;;
71806;SDS011;59655;42.590;23.364;2023-11-19T08:26:34;4.35;;;2.22;;
71806;SDS011;59655;42.590;23.364;2023-11-19T08:28:59;4.07;;;2.05;;
71806;SDS011;59655;42.590;23.364;2023-11-19T08:31:24;6.22;;;2.53;;
71806;SDS011;59655;42.590;23.364;2023-11-19T08:33:50;4.15;;;2.22;;
71806;SDS011;59655;42.590;23.364;2023-11-19T08:36:16;4.55;;;2.22;;
71806;SDS011;59655;42.590;23.364;2023-11-19T08:38:42;3.40;;;2.00;;
71806;SDS011;59655;42.590;23.364;2023-11-19T08:41:07;5.15;;;2.13;;
71806;SDS011;59655;42.590;23.364;2023-11-19T08:43:32;4.15;;;2.47;;
71806;SDS011;59655;42.590;23.364;2023-11-19T08:45:58;4.50;;;2.10;;
71806;SDS011;59655;42.590;23.364;2023-11-19T08:48:23;4.97;;;2.45;;
71806;SDS011;59655;42.590;23.364;2023-11-19T08:50:49;4.82;;;2.30;;
71806;SDS011;59655;42.590;23.364;2023-11-19T08:53:15;3.97;;;2.25;;
71806;SDS011;59655;42.590;23.364;2023-11-19T08:55:40;6.78;;;2.90;;
71806;SDS011;59655;42.590;23.364;2023-11-19T08:58:05;5.43;;;2.22;;
71806;SDS011;59655;42.590;23.364;2023-11-19T09:00:31;4.40;;;2.45;;
71806;SDS011;59655;42.590;23.364;2023-11-19T09:02:57;5.03;;;2.20;;
71806;SDS011;59655;42.590;23.364;2023-11-19T09:05:23;3.15;;;1.90;;
71806;SDS011;59655;42.590;23.364;2023-11-19T09:07:48;4.35;;;2.15;;
71806;SDS011;59655;42.590;23.364;2023-11-19T09:10:14;4.70;;;2.25;;
71806;SDS011;59655;42.590;23.364;2023-11-19T09:12:40;4.32;;;2.10;;
71806;SDS011;59655;42.590;23.364;2023-11-19T09:15:06;5.43;;;2.25;;
71806;SDS011;59655;42.590;23.364;2023-11-19T09:17:32;4.20;;;2.20;;
71806;SDS011;59655;42.590;23.364;2023-11-19T09:19:57;4.47;;;2.60;;
71806;SDS011;59655;42.590;23.364;2023-11-19T09:22:23;4.53;;;2.15;;
71806;SDS011;59655;42.590;23.364;2023-11-19T09:24:48;5.38;;;1.95;;
71806;SDS011;59655;42.590;23.364;2023-11-19T09:27:14;7.32;;;2.65;;
71806;SDS011;59655;42.590;23.364;2023-11-19T09:29:39;4.28;;;2.50;;
71806;SDS011;59655;42.590;23.364;2023-11-19T09:32:06;4.45;;;2.60;;
71806;SDS011;59655;42.590;23.364;2023-11-19T09:34:32;5.95;;;2.53;;
71806;SDS011;59655;42.590;23.364;2023-11-19T09:36:57;5.30;;;2.25;;
71806;SDS011;59655;42.590;23.364;2023-11-19T09:39:23;4.60;;;2.33;;
71806;SDS011;59655;42.590;23.364;2023-11-19T09:41:50;4.00;;;2.50;;
71806;SDS011;59655;42.590;23.364;2023-11-19T09:44:16;4.93;;;2.88;;
71806;SDS011;59655;42.590;23.364;2023-11-19T09:46:43;3.40;;;1.95;;
71806;SDS011;59655;42.590;23.364;2023-11-19T09:49:09;7.82;;;3.30;;
71806;SDS011;59655;42.590;23.364;2023-11-19T09:51:36;5.75;;;2.60;;
71806;SDS011;59655;42.590;23.364;2023-11-19T09:54:02;4.07;;;2.53;;
71806;SDS011;59655;42.590;23.364;2023-11-19T09:56:28;5.10;;;2.45;;
71806;SDS011;59655;42.590;23.364;2023-11-19T09:58:57;4.90;;;2.40;;
71806;SDS011;59655;42.590;23.364;2023-11-19T10:01:24;5.13;;;2.67;;
71806;SDS011;59655;42.590;23.364;2023-11-19T10:03:50;4.95;;;2.20;;
71806;SDS011;59655;42.590;23.364;2023-11-19T10:06:16;5.20;;;2.85;;
71806;SDS011;59655;42.590;23.364;2023-11-19T10:08:43;4.43;;;2.50;;
71806;SDS011;59655;42.590;23.364;2023-11-19T10:11:09;4.75;;;2.45;;
71806;SDS011;59655;42.590;23.364;2023-11-19T10:13:38;4.13;;;2.58;;
71806;SDS011;59655;42.590;23.364;2023-11-19T10:16:07;6.32;;;2.60;;
71806;SDS011;59655;42.590;23.364;2023-11-19T10:18:33;5.85;;;3.00;;
71806;SDS011;59655;42.590;23.364;2023-11-19T10:21:03;5.35;;;3.00;;
71806;SDS011;59655;42.590;23.364;2023-11-19T10:23:47;7.55;;;2.35;;
71806;SDS011;59655;42.590;23.364;2023-11-19T10:26:14;5.47;;;2.67;;
71806;SDS011;59655;42.590;23.364;2023-11-19T10:28:39;5.32;;;2.83;;
71806;SDS011;59655;42.590;23.364;2023-11-19T10:31:09;4.30;;;2.40;;
71806;SDS011;59655;42.590;23.364;2023-11-19T10:33:34;3.92;;;2.25;;
71806;SDS011;59655;42.590;23.364;2023-11-19T10:36:00;4.50;;;2.20;;
71806;SDS011;59655;42.590;23.364;2023-11-19T10:38:25;4.70;;;2.33;;
71806;SDS011;59655;42.590;23.364;2023-11-19T10:40:52;3.97;;;2.10;;
71806;SDS011;59655;42.590;23.364;2023-11-19T10:43:21;4.80;;;2.33;;
71806;SDS011;59655;42.590;23.364;2023-11-19T10:45:51;5.10;;;2.38;;
71806;SDS011;59655;42.590;23.364;2023-11-19T10:48:17;4.43;;;2.45;;
71806;SDS011;59655;42.590;23.364;2023-11-19T10:50:43;4.63;;;2.42;;
71806;SDS011;59655;42.590;23.364;2023-11-19T10:53:10;4.05;;;2.33;;
71806;SDS011;59655;42.590;23.364;2023-11-19T10:55:38;4.30;;;2.47;;
71806;SDS011;59655;42.590;23.364;2023-11-19T10:58:04;3.45;;;1.95;;
71806;SDS011;59655;42.590;23.364;2023-11-19T11:03:21;5.30;;;1.88;;
71806;SDS011;59655;42.590;23.364;2023-11-19T11:05:51;4.72;;;2.58;;
71806;SDS011;59655;42.590;23.364;2023-11-19T11:08:17;3.83;;;2.28;;
71806;SDS011;59655;42.590;23.364;2023-11-19T11:10:44;3.42;;;1.90;;
71806;SDS011;59655;42.590;23.364;2023-11-19T11:13:20;4.03;;;2.10;;
71806;SDS011;59655;42.590;23.364;2023-11-19T11:15:49;3.40;;;1.95;;
71806;SDS011;59655;42.590;23.364;2023-11-19T11:18:15;5.68;;;2.28;;
71806;SDS011;59655;42.590;23.364;2023-11-19T11:20:44;3.50;;;2.10;;
71806;SDS011;59655;42.590;23.364;2023-11-19T11:28:58;4.90;;;2.20;;
71806;SDS011;59655;42.590;23.364;2023-11-19T11:31:48;4.57;;;2.33;;
71806;SDS011;59655;42.590;23.364;2023-11-19T11:37:45;3.15;;;1.65;;
71806;SDS011;59655;42.590;23.364;2023-11-19T11:40:15;3.60;;;2.00;;
71806;SDS011;59655;42.590;23.364;2023-11-19T11:42:41;3.92;;;1.70;;
71806;SDS011;59655;42.590;23.364;2023-11-19T11:45:10;3.03;;;1.70;;
71806;SDS011;59655;42.590;23.364;2023-11-19T11:55:27;3.58;;;1.70;;
71806;SDS011;59655;42.590;23.364;2023-11-19T11:57:56;3.08;;;1.60;;
71806;SDS011;59655;42.590;23.364;2023-11-19T12:03:08;3.25;;;2.00;;
71806;SDS011;59655;42.590;23.364;2023-11-19T12:05:43;3.90;;;2.30;;
71806;SDS011;59655;42.590;23.364;2023-11-19T12:08:11;7.72;;;3.83;;
71806;SDS011;59655;42.590;23.364;2023-11-19T12:10:49;3.60;;;1.90;;
71806;SDS011;59655;42.590;23.364;2023-11-19T12:13:16;4.22;;;1.85;;
71806;SDS011;59655;42.590;23.364;2023-11-19T12:16:29;3.33;;;2.00;;
71806;SDS011;59655;42.590;23.364;2023-11-19T12:18:30;3.90;;;1.73;;
71806;SDS011;59655;42.590;23.364;2023-11-19T12:20:56;4.18;;;2.10;;
71806;SDS011;59655;42.590;23.364;2023-11-19T12:23:25;3.08;;;1.73;;
71806;SDS011;59655;42.590;23.364;2023-11-19T12:25:51;4.07;;;1.75;;
71806;SDS011;59655;42.590;23.364;2023-11-19T12:28:17;2.92;;;1.70;;
71806;SDS011;59655;42.590;23.364;2023-11-19T12:30:44;5.03;;;2.05;;
71806;SDS011;59655;42.590;23.364;2023-11-19T12:33:10;4.53;;;1.92;;
71806;SDS011;59655;42.590;23.364;2023-11-19T12:35:39;3.83;;;1.70;;
71806;SDS011;59655;42.590;23.364;2023-11-19T12:38:05;3.08;;;1.95;;
71806;SDS011;59655;42.590;23.364;2023-11-19T12:40:31;3.88;;;1.83;;
71806;SDS011;59655;42.590;23.364;2023-11-19T12:42:57;4.55;;;2.05;;
71806;SDS011;59655;42.590;23.364;2023-11-19T12:45:22;3.42;;;1.52;;
71806;SDS011;59655;42.590;23.364;2023-11-19T12:47:49;4.32;;;1.92;;
71806;SDS011;59655;42.590;23.364;2023-11-19T12:50:16;4.45;;;2.05;;
71806;SDS011;59655;42.590;23.364;2023-11-19T12:52:57;4.00;;;2.00;;
71806;SDS011;59655;42.590;23.364;2023-11-19T12:55:24;4.20;;;1.90;;
71806;SDS011;59655;42.590;23.364;2023-11-19T12:57:51;4.05;;;1.90;;
71806;SDS011;59655;42.590;23.364;2023-11-19T13:00:19;3.22;;;1.80;;
71806;SDS011;59655;42.590;23.364;2023-11-19T13:02:50;3.92;;;1.90;;
71806;SDS011;59655;42.590;23.364;2023-11-19T13:05:20;5.35;;;2.88;;
71806;SDS011;59655;42.590;23.364;2023-11-19T13:10:50;9.18;;;1.98;;
71806;SDS011;59655;42.590;23.364;2023-11-19T13:13:16;4.05;;;2.33;;
71806;SDS011;59655;42.590;23.364;2023-11-19T13:15:42;4.47;;;2.28;;
71806;SDS011;59655;42.590;23.364;2023-11-19T13:18:11;4.75;;;2.25;;
71806;SDS011;59655;42.590;23.364;2023-11-19T13:20:37;6.00;;;2.42;;
71806;SDS011;59655;42.590;23.364;2023-11-19T13:23:04;4.15;;;2.45;;
71806;SDS011;59655;42.590;23.364;2023-11-19T13:25:30;4.75;;;2.90;;
71806;SDS011;59655;42.590;23.364;2023-11-19T13:27:57;5.07;;;2.80;;
71806;SDS011;59655;42.590;23.364;2023-11-19T13:30:22;4.57;;;2.70;;
71806;SDS011;59655;42.590;23.364;2023-11-19T13:32:49;4.78;;;2.45;;
71806;SDS011;59655;42.590;23.364;2023-11-19T13:35:15;4.72;;;2.80;;
71806;SDS011;59655;42.590;23.364;2023-11-19T13:37:42;41.35;;;31.08;;
71806;SDS011;59655;42.590;23.364;2023-11-19T13:40:08;10.65;;;7.13;;
71806;SDS011;59655;42.590;23.364;2023-11-19T13:42:35;6.57;;;4.03;;
71806;SDS011;59655;42.590;23.364;2023-11-19T13:45:06;4.32;;;2.50;;
71806;SDS011;59655;42.590;23.364;2023-11-19T13:47:43;5.80;;;3.55;;
71806;SDS011;59655;42.590;23.364;2023-11-19T13:50:13;5.57;;;2.90;;
71806;SDS011;59655;42.590;23.364;2023-11-19T13:52:40;6.00;;;3.25;;
71806;SDS011;59655;42.590;23.364;2023-11-19T13:55:10;8.55;;;3.83;;
71806;SDS011;59655;42.590;23.364;2023-11-19T13:57:36;9.90;;;4.85;;
71806;SDS011;59655;42.590;23.364;2023-11-19T14:00:02;12.98;;;5.57;;
71806;SDS011;59655;42.590;23.364;2023-11-19T14:02:32;8.27;;;4.38;;
71806;SDS011;59655;42.590;23.364;2023-11-19T14:04:58;19.38;;;8.07;;
71806;SDS011;59655;42.590;23.364;2023-11-19T14:07:23;12.35;;;6.50;;
71806;SDS011;59655;42.590;23.364;2023-11-19T14:09:49;10.23;;;6.03;;
71806;SDS011;59655;42.590;23.364;2023-11-19T14:12:15;16.00;;;7.32;;
71806;SDS011;59655;42.590;23.364;2023-11-19T14:14:40;13.02;;;6.28;;
71806;SDS011;59655;42.590;23.364;2023-11-19T14:17:07;14.32;;;5.80;;
71806;SDS011;59655;42.590;23.364;2023-11-19T14:19:32;11.55;;;5.38;;
71806;SDS011;59655;42.590;23.364;2023-11-19T14:21:58;12.02;;;6.43;;
71806;SDS011;59655;42.590;23.364;2023-11-19T14:24:24;26.75;;;17.58;;
71806;SDS011;59655;42.590;23.364;2023-11-19T14:26:50;21.50;;;14.48;;
71806;SDS011;59655;42.590;23.364;2023-11-19T14:29:16;17.55;;;10.10;;
71806;SDS011;59655;42.590;23.364;2023-11-19T14:31:42;13.50;;;7.18;;
71806;SDS011;59655;42.590;23.364;2023-11-19T14:34:08;15.05;;;7.50;;
71806;SDS011;59655;42.590;23.364;2023-11-19T14:36:33;11.63;;;5.68;;
71806;SDS011;59655;42.590;23.364;2023-11-19T14:38:59;20.35;;;8.20;;
71806;SDS011;59655;42.590;23.364;2023-11-19T14:41:25;19.63;;;10.63;;
71806;SDS011;59655;42.590;23.364;2023-11-19T14:43:50;15.68;;;8.30;;
71806;SDS011;59655;42.590;23.364;2023-11-19T14:46:16;18.65;;;10.10;;
71806;SDS011;59655;42.590;23.364;2023-11-19T14:48:41;98.97;;;37.40;;
71806;SDS011;59655;42.590;23.364;2023-11-19T14:51:07;84.82;;;37.72;;
71806;SDS011;59655;42.590;23.364;2023-11-19T14:53:33;41.15;;;19.77;;
71806;SDS011;59655;42.590;23.364;2023-11-19T14:55:59;30.67;;;15.30;;
71806;SDS011;59655;42.590;23.364;2023-11-19T14:58:24;39.25;;;17.60;;
71806;SDS011;59655;42.590;23.364;2023-11-19T15:00:51;41.70;;;18.40;;